Lumpkin, Georgia
Current Conditions -  °F | °C
As of 4:58 AM on Wednesday 26 Nov 2014 (Local Time) from KEUF Reporting Station
Clear Clear  
Wind Chill: 44°   Ceiling: Unl
Heat Index: 46°   Visibility: 10mi
Dew Point: 46°   Wind: 5mph
Humidity: 100%   Direction: 290°WNW
Pressure: 30.05"   Gusts: NA
Location:  32.05°N, 84.8°W
Report Text: KEUF 260958Z AUTO 29004KT 10SM CLR 08/08 A3005 RMK AO2 SLP174 T00780078
Loading
Personal Weather Stations






























Interactive Weather Map New forecast layout! Learn more

10-Day Weather Forecast

Advertisements
Track Severe Weather on mobile